createdAt,value
2018-04-28T00:00:22.695Z,13.50
2018-04-28T00:02:50.214Z,13.60
2018-04-28T00:05:17.734Z,13.60
2018-04-28T00:07:45.283Z,13.50
2018-04-28T00:10:13.734Z,13.60
2018-04-28T00:12:41.251Z,13.50
2018-04-28T00:15:09.168Z,13.40
2018-04-28T00:17:36.691Z,13.40
2018-04-28T00:20:05.008Z,13.40
2018-04-28T00:22:34.158Z,13.20
2018-04-28T00:25:20.397Z,13.20
2018-04-28T00:27:59.732Z,13.30
2018-04-28T00:30:28.670Z,13.30
2018-04-28T00:32:57.999Z,13.30
2018-04-28T00:35:29.439Z,13.20
2018-04-28T00:37:56.963Z,13.20
2018-04-28T00:40:29.165Z,13.20
2018-04-28T00:42:57.547Z,13.20
2018-04-28T00:45:25.816Z,13.10
2018-04-28T00:47:53.342Z,13.20
2018-04-28T00:50:36.523Z,13.20
2018-04-28T00:53:04.035Z,13.10
2018-04-28T00:55:39.487Z,13.10
2018-04-28T01:01:14.974Z,13.10
2018-04-28T01:03:44.302Z,13.10
2018-04-28T01:06:13.334Z,13.00
2018-04-28T01:08:42.355Z,13.00
2018-04-28T01:11:14.418Z,13.00
2018-04-28T01:14:01.358Z,13.00
2018-04-28T01:16:29.774Z,12.90
2018-04-28T01:19:01.964Z,12.90
2018-04-28T01:21:37.934Z,12.80
2018-04-28T01:24:15.754Z,12.80
2018-04-28T01:26:44.111Z,12.80
2018-04-28T01:29:13.975Z,12.80
2018-04-28T01:31:42.314Z,12.70
2018-04-28T01:34:15.789Z,12.70
2018-04-28T01:40:09.448Z,12.60
2018-04-28T01:42:58.974Z,12.50
2018-04-28T01:48:28.404Z,12.50
2018-04-28T01:51:04.403Z,12.50
2018-04-28T01:53:31.947Z,12.60
2018-04-28T01:56:04.875Z,12.50
2018-04-28T01:58:34.429Z,12.50
2018-04-28T02:04:02.410Z,12.40
2018-04-28T02:06:51.326Z,12.30
2018-04-28T02:09:20.486Z,12.20
2018-04-28T02:11:55.623Z,12.20
2018-04-28T02:14:29.998Z,12.20
2018-04-28T02:17:03.195Z,12.10
2018-04-28T02:19:32.677Z,12.00
2018-04-28T02:22:06.922Z,11.90
2018-04-28T02:24:40.291Z,12.00
2018-04-28T02:27:17.163Z,12.00
2018-04-28T02:29:50.401Z,12.00
2018-04-28T02:32:18.858Z,11.90
2018-04-28T02:37:43.727Z,12.00
2018-04-28T02:40:19.076Z,12.00
2018-04-28T02:42:51.071Z,11.90
2018-04-28T02:45:39.658Z,11.90
2018-04-28T02:51:07.172Z,11.80
2018-04-28T02:53:38.416Z,11.80
2018-04-28T02:56:14.135Z,11.70
2018-04-28T02:58:53.510Z,11.70
2018-04-28T03:01:26.139Z,11.60
2018-04-28T03:03:55.447Z,11.60
2018-04-28T03:06:39.606Z,11.70
2018-04-28T03:09:08.907Z,11.70
2018-04-28T03:14:32.963Z,11.60
2018-04-28T03:17:06.498Z,11.60
2018-04-28T03:19:40.550Z,11.60
2018-04-28T03:22:08.883Z,11.50
2018-04-28T03:24:46.955Z,11.50
2018-04-28T03:27:23.646Z,11.50
2018-04-28T03:30:04.743Z,11.50
2018-04-28T03:32:39.357Z,11.50
2018-04-28T03:38:12.274Z,11.30
2018-04-28T03:40:54.669Z,11.20
2018-04-28T03:43:29.884Z,11.20
2018-04-28T03:46:09.752Z,11.10
2018-04-28T03:51:36.999Z,11.20
2018-04-28T03:54:04.542Z,11.10
2018-04-28T03:56:39.447Z,11.10
2018-04-28T03:59:18.712Z,11.10
2018-04-28T04:01:58.006Z,11.10
2018-04-28T04:07:23.150Z,11.10
2018-04-28T04:13:12.091Z,11.00
2018-04-28T04:18:51.512Z,11.00
2018-04-28T04:21:23.306Z,11.00
2018-04-28T04:24:02.892Z,11.00
2018-04-28T04:26:50.635Z,11.10
2018-04-28T04:29:28.382Z,11.10
2018-04-28T04:32:01.854Z,11.20
2018-04-28T04:37:43.043Z,11.30
2018-04-28T04:40:20.038Z,11.30
2018-04-28T04:42:59.530Z,11.40
2018-04-28T04:45:33.605Z,11.50
2018-04-28T04:51:08.331Z,11.50
2018-04-28T04:53:41.775Z,11.40
2018-04-28T04:56:16.885Z,11.50
2018-04-28T04:58:56.606Z,11.50
2018-04-28T05:01:25.934Z,11.50
2018-04-28T05:04:08.386Z,11.60
2018-04-28T05:06:56.587Z,11.60
2018-04-28T05:09:32.540Z,11.70
2018-04-28T05:15:20.961Z,11.80
2018-04-28T05:17:55.787Z,11.90
2018-04-28T05:26:40.030Z,12.30
2018-04-28T05:29:14.429Z,12.40
2018-04-28T05:35:11.963Z,12.80
2018-04-28T05:38:04.204Z,12.80
2018-04-28T05:40:38.515Z,12.90
2018-04-28T05:43:15.250Z,13.00
2018-04-28T05:45:54.580Z,13.00
2018-04-28T05:51:32.405Z,13.10
2018-04-28T05:54:11.629Z,13.20
2018-04-28T05:59:59.264Z,13.40
2018-04-28T06:02:34.583Z,13.60
2018-04-28T06:05:24.661Z,13.80
2018-04-28T06:07:58.468Z,14.20
2018-04-28T06:10:43.583Z,14.60
2018-04-28T06:13:23.631Z,15.50
2018-04-28T06:15:59.177Z,15.50
2018-04-28T06:18:34.466Z,17.00
2018-04-28T06:21:02.814Z,20.90
2018-04-28T06:23:30.326Z,20.80
2018-04-28T06:25:59.025Z,23.90
2018-04-28T06:28:26.571Z,23.90
2018-04-28T06:30:54.102Z,25.10
2018-04-28T06:33:21.619Z,26.30
2018-04-28T06:35:50.567Z,28.00
2018-04-28T06:38:18.861Z,28.20
2018-04-28T06:40:46.378Z,28.20
2018-04-28T06:43:25.782Z,29.00
2018-04-28T06:50:18.460Z,29.40
2018-04-28T06:52:46.020Z,29.80
2018-04-28T06:55:14.607Z,30.10
2018-04-28T06:57:42.503Z,30.20
2018-04-28T07:00:10.714Z,30.40
2018-04-28T07:02:38.252Z,30.60
2018-04-28T07:05:06.551Z,31.20
2018-04-28T07:07:34.075Z,31.10
2018-04-28T07:10:02.464Z,30.90
2018-04-28T07:12:30.810Z,31.70
2018-04-28T07:14:58.328Z,31.60
2018-04-28T07:17:25.844Z,32.00
2018-04-28T07:19:55.734Z,31.70
2018-04-28T07:22:24.040Z,32.00
2018-04-28T07:24:52.343Z,32.20
2018-04-28T07:27:19.994Z,32.10
2018-04-28T07:29:47.502Z,32.20
2018-04-28T07:32:16.356Z,33.60
2018-04-28T07:34:44.327Z,33.50
2018-04-28T07:37:11.885Z,33.40
2018-04-28T07:39:39.398Z,33.00
2018-04-28T07:42:07.250Z,33.50
2018-04-28T07:44:34.790Z,33.40
2018-04-28T07:47:02.796Z,33.60
2018-04-28T07:49:30.330Z,34.00
2018-04-28T07:51:57.839Z,34.50
2018-04-28T07:54:25.384Z,34.40
2018-04-28T07:56:52.935Z,34.60
2018-04-28T07:59:21.258Z,35.20
2018-04-28T08:01:49.162Z,35.20
2018-04-28T08:04:17.210Z,35.80
2018-04-28T08:06:44.719Z,36.20
2018-04-28T08:09:12.236Z,36.70
2018-04-28T08:11:39.835Z,37.50
2018-04-28T08:14:07.351Z,38.10
2018-04-28T08:16:35.025Z,38.00
2018-04-28T08:19:02.812Z,37.70
2018-04-28T08:21:31.237Z,37.20
2018-04-28T08:23:58.748Z,37.20
2018-04-28T08:26:27.236Z,37.90
2018-04-28T08:28:55.503Z,38.10
2018-04-28T08:31:23.915Z,38.60
2018-04-28T08:33:51.465Z,38.50
2018-04-28T08:36:19.035Z,39.40
2018-04-28T08:38:46.657Z,39.10
2018-04-28T08:41:16.711Z,37.60
2018-04-28T08:43:44.300Z,37.50
2018-04-28T08:46:11.811Z,37.70
2018-04-28T08:48:39.816Z,37.90
2018-04-28T08:51:07.359Z,37.50
2018-04-28T08:53:34.987Z,37.70
2018-04-28T08:56:02.542Z,38.40
2018-04-28T08:58:30.834Z,39.60
2018-04-28T09:01:00.046Z,39.50
2018-04-28T09:03:28.901Z,39.30
2018-04-28T09:05:56.586Z,38.50
2018-04-28T09:08:24.099Z,38.00
2018-04-28T09:10:51.932Z,37.50
2018-04-28T09:13:19.458Z,38.10
2018-04-28T09:15:46.986Z,37.40
2018-04-28T09:18:16.372Z,36.20
2018-04-28T09:20:43.895Z,36.20
2018-04-28T09:23:11.422Z,36.20
2018-04-28T09:25:39.083Z,37.40
2018-04-28T09:28:06.764Z,36.90
2018-04-28T09:30:34.311Z,36.80
2018-04-28T09:33:02.674Z,37.70
2018-04-28T09:35:30.212Z,37.60
2018-04-28T09:37:58.532Z,39.40
2018-04-28T09:40:26.386Z,39.30
2018-04-28T09:42:53.931Z,37.50
2018-04-28T09:45:22.260Z,37.70
2018-04-28T09:47:49.798Z,37.60
2018-04-28T09:50:17.310Z,37.00
2018-04-28T09:52:44.823Z,36.70
2018-04-28T09:55:13.007Z,36.70
2018-04-28T09:57:40.522Z,36.40
2018-04-28T10:00:23.632Z,35.10
2018-04-28T10:02:51.152Z,35.10
2018-04-28T10:05:20.021Z,34.30
2018-04-28T10:07:47.669Z,33.50
2018-04-28T10:10:16.427Z,32.70
2018-04-28T10:12:44.032Z,31.30
2018-04-28T10:15:11.927Z,30.20
2018-04-28T10:17:39.467Z,29.50
2018-04-28T10:20:07.013Z,28.80
2018-04-28T10:22:34.585Z,28.10
2018-04-28T10:25:02.556Z,27.40
2018-04-28T10:27:30.085Z,26.80
2018-04-28T10:29:58.456Z,25.80
2018-04-28T10:32:26.825Z,25.40
2018-04-28T10:34:55.108Z,25.00
2018-04-28T10:37:24.196Z,24.60
2018-04-28T10:39:52.474Z,24.60
2018-04-28T10:42:20.822Z,24.60
2018-04-28T10:44:48.363Z,24.60
2018-04-28T10:47:16.484Z,24.30
2018-04-28T10:49:44.050Z,24.20
2018-04-28T10:52:12.429Z,24.00
2018-04-28T10:54:39.966Z,24.00
2018-04-28T10:57:07.492Z,23.90
2018-04-28T10:59:35.099Z,24.00
2018-04-28T11:02:02.631Z,23.80
2018-04-28T11:04:32.338Z,23.50
2018-04-28T11:07:00.561Z,23.50
2018-04-28T11:09:28.101Z,23.40
2018-04-28T11:11:56.389Z,23.30
2018-04-28T11:14:24.719Z,23.40
2018-04-28T11:16:52.250Z,23.40
2018-04-28T11:19:19.779Z,23.60
2018-04-28T11:21:49.421Z,23.60
2018-04-28T11:24:16.943Z,23.60
2018-04-28T11:26:45.241Z,23.50
2018-04-28T11:29:13.735Z,23.50
2018-04-28T11:31:41.265Z,23.50
2018-04-28T11:34:09.543Z,23.60
2018-04-28T11:36:37.870Z,23.50
2018-04-28T11:39:05.396Z,23.50
2018-04-28T11:41:33.064Z,23.50
2018-04-28T11:44:00.663Z,23.50
2018-04-28T11:46:28.200Z,23.50
2018-04-28T11:48:55.714Z,23.60
2018-04-28T11:51:24.047Z,23.90
2018-04-28T11:53:51.562Z,23.90
2018-04-28T11:56:19.078Z,23.80
2018-04-28T11:58:46.648Z,23.80
2018-04-28T12:01:16.258Z,23.70
2018-04-28T12:03:43.778Z,23.70
2018-04-28T12:06:11.827Z,23.90
2018-04-28T12:08:39.851Z,23.90
2018-04-28T12:11:07.358Z,24.10
2018-04-28T12:13:34.906Z,23.90
2018-04-28T12:16:02.416Z,24.00
2018-04-28T12:18:29.942Z,23.90
2018-04-28T12:20:57.497Z,23.60
2018-04-28T12:23:25.011Z,23.80
2018-04-28T12:25:52.526Z,23.90
2018-04-28T12:28:20.383Z,24.00
2018-04-28T12:30:47.908Z,24.00
2018-04-28T12:33:16.414Z,24.10
2018-04-28T12:35:44.050Z,24.10
2018-04-28T12:38:11.572Z,24.10
2018-04-28T12:40:39.099Z,24.20
2018-04-28T12:43:06.664Z,24.40
2018-04-28T12:45:34.200Z,24.30
2018-04-28T12:48:01.718Z,24.30
2018-04-28T12:50:29.853Z,24.30
2018-04-28T12:52:57.379Z,24.30
2018-04-28T12:55:24.914Z,24.30
2018-04-28T12:57:52.507Z,24.30
2018-04-28T13:00:20.042Z,24.30
2018-04-28T13:02:48.320Z,24.40
2018-04-28T13:05:16.743Z,24.40
2018-04-28T13:07:44.251Z,24.40
2018-04-28T13:10:12.309Z,24.40
2018-04-28T13:12:40.222Z,24.30
2018-04-28T13:15:07.754Z,24.30
2018-04-28T13:17:36.031Z,24.30
2018-04-28T13:20:03.575Z,24.20
2018-04-28T13:22:31.130Z,24.20
2018-04-28T13:24:58.659Z,24.20
2018-04-28T13:27:26.202Z,24.30
2018-04-28T13:29:53.732Z,24.40
2018-04-28T13:32:21.254Z,24.50
2018-04-28T13:34:49.312Z,24.70
2018-04-28T13:37:18.447Z,24.90
2018-04-28T13:39:45.995Z,24.90
2018-04-28T13:42:15.446Z,24.70
2018-04-28T13:44:42.979Z,24.80
2018-04-28T13:47:10.506Z,24.50
2018-04-28T13:49:38.869Z,24.70
2018-04-28T13:52:06.433Z,24.60
2018-04-28T13:54:33.960Z,24.70
2018-04-28T13:57:02.062Z,24.80
2018-04-28T13:59:29.623Z,24.80
2018-04-28T14:01:57.151Z,24.80
2018-04-28T14:04:24.694Z,24.60
2018-04-28T14:06:52.245Z,24.60
2018-04-28T14:09:19.758Z,24.60
2018-04-28T14:11:47.885Z,24.50
2018-04-28T14:14:17.275Z,24.50
2018-04-28T14:16:44.819Z,24.40
2018-04-28T14:19:12.927Z,24.60
2018-04-28T14:21:40.469Z,24.60
2018-04-28T14:24:08.000Z,24.60
2018-04-28T14:26:36.382Z,24.50
2018-04-28T14:29:04.692Z,24.40
2018-04-28T14:31:32.232Z,24.30
2018-04-28T14:33:59.766Z,24.30
2018-04-28T14:36:27.337Z,24.20
2018-04-28T14:38:55.631Z,24.50
2018-04-28T14:41:23.614Z,24.40
2018-04-28T14:43:51.126Z,24.60
2018-04-28T14:46:19.486Z,24.60
2018-04-28T14:48:47.043Z,24.60
2018-04-28T14:51:16.371Z,24.60
2018-04-28T14:53:44.694Z,24.50
2018-04-28T14:58:46.922Z,24.50
2018-04-28T15:01:16.779Z,24.50
2018-04-28T15:03:44.241Z,24.50
2018-04-28T15:06:11.747Z,24.60
2018-04-28T15:08:39.366Z,24.60
2018-04-28T15:11:06.903Z,24.50
2018-04-28T15:13:35.243Z,24.20
2018-04-28T15:16:02.794Z,24.10
2018-04-28T15:18:30.323Z,24.10
2018-04-28T15:20:57.850Z,24.10
2018-04-28T15:23:25.718Z,24.20
2018-04-28T15:25:53.265Z,24.20
2018-04-28T15:28:21.640Z,24.30
2018-04-28T15:30:49.159Z,24.30
2018-04-28T15:33:16.669Z,24.50
2018-04-28T15:35:44.191Z,24.70
2018-04-28T15:38:11.747Z,24.70
2018-04-28T15:40:39.259Z,24.70
2018-04-28T15:43:06.813Z,24.60
2018-04-28T15:45:34.861Z,24.60
2018-04-28T15:48:02.375Z,24.60
2018-04-28T15:50:29.887Z,24.60
2018-04-28T15:52:57.471Z,24.60
2018-04-28T15:55:25.069Z,24.60
2018-04-28T15:57:52.550Z,24.50
2018-04-28T16:00:20.910Z,24.60
2018-04-28T16:02:48.532Z,24.60
2018-04-28T16:05:17.196Z,24.50
2018-04-28T16:07:44.794Z,24.50
2018-04-28T16:10:12.340Z,24.60
2018-04-28T16:12:39.888Z,24.60
2018-04-28T16:15:07.821Z,24.50
2018-04-28T16:17:36.106Z,24.40
2018-04-28T16:20:03.648Z,24.30
2018-04-28T16:22:31.975Z,24.40
2018-04-28T16:24:59.486Z,24.40
2018-04-28T16:27:27.850Z,24.20
2018-04-28T16:29:55.380Z,24.20
2018-04-28T16:32:22.901Z,24.20
2018-04-28T16:34:50.436Z,24.00
2018-04-28T16:37:18.762Z,24.00
2018-04-28T16:39:46.278Z,24.00
2018-04-28T16:42:26.464Z,23.80
2018-04-28T16:49:59.160Z,23.50
2018-04-28T16:52:26.698Z,23.40
2018-04-28T16:54:54.260Z,23.30
2018-04-28T16:57:21.939Z,23.30
2018-04-28T16:59:50.286Z,23.30
2018-04-28T17:02:17.850Z,23.20
2018-04-28T17:04:45.472Z,23.20
2018-04-28T17:07:23.920Z,23.10
2018-04-28T17:15:51.680Z,23.10
2018-04-28T17:18:20.062Z,22.70
2018-04-28T17:20:48.118Z,22.70
2018-04-28T17:23:19.250Z,22.70
2018-04-28T17:25:46.817Z,22.60
2018-04-28T17:28:15.523Z,22.60
2018-04-28T17:30:43.402Z,22.50
2018-04-28T17:33:10.974Z,22.50
2018-04-28T17:35:39.345Z,22.30
2018-04-28T17:38:07.312Z,22.30
2018-04-28T17:40:35.477Z,22.30
2018-04-28T17:43:03.008Z,22.20
2018-04-28T17:45:30.562Z,22.10
2018-04-28T17:47:58.090Z,22.00
2018-04-28T17:50:26.440Z,21.90
2018-04-28T17:52:54.015Z,21.80
2018-04-28T17:55:22.342Z,21.70
2018-04-28T17:57:49.860Z,21.60
2018-04-28T18:00:18.599Z,21.50
2018-04-28T18:02:46.308Z,21.40
2018-04-28T18:05:25.439Z,21.20
2018-04-28T18:16:25.156Z,20.60
2018-04-28T18:18:52.675Z,20.50
2018-04-28T18:21:20.960Z,20.40
2018-04-28T18:23:48.650Z,20.40
2018-04-28T18:26:16.477Z,20.40
2018-04-28T18:28:44.828Z,20.30
2018-04-28T18:31:12.394Z,20.30
2018-04-28T18:33:39.919Z,20.20
2018-04-28T18:36:07.457Z,20.20
2018-04-28T18:38:39.231Z,20.10
2018-04-28T18:41:06.894Z,20.10
2018-04-28T18:43:35.430Z,20.10
2018-04-28T18:46:03.149Z,20.00
2018-04-28T18:48:30.683Z,19.90
2018-04-28T18:50:58.274Z,19.90
2018-04-28T18:53:25.816Z,19.80
2018-04-28T18:55:53.340Z,19.80
2018-04-28T18:58:20.923Z,19.80
2018-04-28T19:00:48.938Z,19.70
2018-04-28T19:03:16.499Z,19.70
2018-04-28T19:05:44.053Z,19.60
2018-04-28T19:08:11.606Z,19.50
2018-04-28T19:10:39.123Z,19.40
2018-04-28T19:13:06.646Z,19.30
2018-04-28T19:15:35.544Z,19.30
2018-04-28T19:18:03.966Z,19.30
2018-04-28T19:20:31.492Z,19.10
2018-04-28T19:22:59.096Z,19.00
2018-04-28T19:25:26.635Z,18.90
2018-04-28T19:27:54.156Z,18.80
2018-04-28T19:30:22.496Z,18.80
2018-04-28T19:32:50.044Z,18.80
2018-04-28T19:35:17.594Z,18.70
2018-04-28T19:37:45.199Z,18.70
2018-04-28T19:40:14.407Z,18.60
2018-04-28T19:42:41.970Z,18.60
2018-04-28T19:45:10.328Z,18.50
2018-04-28T19:47:38.050Z,18.50
2018-04-28T19:50:05.659Z,18.50
2018-04-28T19:52:33.979Z,18.30
2018-04-28T19:55:01.547Z,18.30
2018-04-28T19:57:29.067Z,18.20
2018-04-28T19:59:56.637Z,18.20
2018-04-28T20:02:24.162Z,18.10
2018-04-28T20:04:52.463Z,18.00
2018-04-28T20:07:20.301Z,18.00
2018-04-28T20:09:47.923Z,18.00
2018-04-28T20:12:16.262Z,18.00
2018-04-28T20:14:43.806Z,18.00
2018-04-28T20:17:11.448Z,17.90
2018-04-28T20:19:39.836Z,17.90
2018-04-28T20:22:19.295Z,17.80
2018-04-28T20:24:59.356Z,17.80
2018-04-28T20:27:27.098Z,17.70
2018-04-28T20:29:55.542Z,17.70
2018-04-28T20:32:23.158Z,17.70
2018-04-28T20:34:57.242Z,17.70
2018-04-28T20:37:32.947Z,17.70
2018-04-28T20:40:00.553Z,17.60
2018-04-28T20:42:28.187Z,17.60
2018-04-28T20:44:57.489Z,17.60
2018-04-28T20:47:25.811Z,17.50
2018-04-28T20:49:53.404Z,17.50
2018-04-28T20:52:21.780Z,17.50
2018-04-28T20:54:52.676Z,17.40
2018-04-28T20:57:20.422Z,17.40
2018-04-28T20:59:48.159Z,17.30
2018-04-28T21:02:16.670Z,17.30
2018-04-28T21:04:45.086Z,17.20
2018-04-28T21:07:22.943Z,17.20
2018-04-28T21:18:01.902Z,17.20
2018-04-28T21:34:16.530Z,16.30
2018-04-28T21:36:44.153Z,16.20
2018-04-28T21:39:11.743Z,16.20
2018-04-28T21:41:39.461Z,16.20
2018-04-28T21:44:07.125Z,16.10
2018-04-28T21:46:34.727Z,16.20
2018-04-28T21:49:02.615Z,16.20
2018-04-28T21:51:30.923Z,16.20
2018-04-28T21:53:59.359Z,16.20
2018-04-28T21:56:27.265Z,16.20
2018-04-28T21:58:56.359Z,16.20
2018-04-28T22:01:23.979Z,16.10
2018-04-28T22:03:51.564Z,16.20
2018-04-28T22:06:19.139Z,16.10
2018-04-28T22:08:46.778Z,16.10
2018-04-28T22:11:26.925Z,16.00
2018-04-28T22:14:08.389Z,16.00
2018-04-28T22:16:36.441Z,16.00
2018-04-28T22:19:04.695Z,16.00
2018-04-28T22:21:37.042Z,15.90
2018-04-28T22:24:05.875Z,15.90
2018-04-28T22:26:33.461Z,15.90
2018-04-28T22:29:01.245Z,15.80
2018-04-28T22:31:28.981Z,15.80
2018-04-28T22:33:56.652Z,15.70
2018-04-28T22:36:24.192Z,15.60
2018-04-28T22:38:52.178Z,15.50
2018-04-28T22:41:19.690Z,15.50
2018-04-28T22:43:47.980Z,15.50
2018-04-28T22:46:16.996Z,15.40
2018-04-28T22:48:44.514Z,15.40
2018-04-28T22:51:13.734Z,15.40
2018-04-28T22:53:41.308Z,15.40
2018-04-28T22:56:08.823Z,15.40
2018-04-28T22:58:36.334Z,15.30
2018-04-28T23:01:04.304Z,15.30
2018-04-28T23:03:31.826Z,15.30
2018-04-28T23:06:00.111Z,15.20
2018-04-28T23:08:28.422Z,15.10
2018-04-28T23:10:55.939Z,15.10
2018-04-28T23:13:23.453Z,15.10
2018-04-28T23:15:50.990Z,15.00
2018-04-28T23:18:18.513Z,14.90
2018-04-28T23:20:46.823Z,14.80
2018-04-28T23:23:16.550Z,14.80
2018-04-28T23:25:44.066Z,14.80
2018-04-28T23:28:12.343Z,14.70
2018-04-28T23:30:39.911Z,14.70
2018-04-28T23:33:07.522Z,14.70
2018-04-28T23:35:35.047Z,14.60
2018-04-28T23:38:02.593Z,14.50
2018-04-28T23:40:30.111Z,14.50
2018-04-28T23:42:57.637Z,14.50
2018-04-28T23:45:25.488Z,14.50
2018-04-28T23:47:53.056Z,14.40
2018-04-28T23:50:20.551Z,14.30
2018-04-28T23:52:48.104Z,14.20
2018-04-28T23:55:17.882Z,14.10
2018-04-28T23:57:45.419Z,14.10
